createdAt,value
2018-07-09T00:02:15.195Z,95769.00
2018-07-09T00:04:46.733Z,95769.00
2018-07-09T00:07:18.493Z,95760.00
2018-07-09T00:09:50.433Z,95763.00
2018-07-09T00:12:22.356Z,95762.00
2018-07-09T00:14:54.332Z,95765.00
2018-07-09T00:17:26.187Z,95759.00
2018-07-09T00:19:58.232Z,95759.00
2018-07-09T00:22:30.087Z,95757.00
2018-07-09T00:25:02.093Z,95757.00
2018-07-09T00:27:34.592Z,95759.00
2018-07-09T00:30:06.031Z,95762.00
2018-07-09T00:32:37.692Z,95761.00
2018-07-09T00:35:09.785Z,95757.00
2018-07-09T00:37:41.715Z,95756.00
2018-07-09T00:40:13.655Z,95759.00
2018-07-09T00:42:46.464Z,95758.00
2018-07-09T00:45:18.512Z,95756.00
2018-07-09T00:47:50.984Z,95757.00
2018-07-09T00:50:22.912Z,95760.00
2018-07-09T00:52:55.015Z,95761.00
2018-07-09T00:55:26.507Z,95762.00
2018-07-09T00:57:58.163Z,95758.00
2018-07-09T01:00:30.155Z,95762.00
2018-07-09T01:03:02.036Z,95759.00
2018-07-09T01:05:34.045Z,95755.00
2018-07-09T01:08:05.942Z,95752.00
2018-07-09T01:10:53.091Z,95750.00
2018-07-09T01:13:44.283Z,95748.00
2018-07-09T01:16:16.156Z,95746.00
2018-07-09T01:18:47.712Z,95745.00
2018-07-09T01:21:19.484Z,95746.00
2018-07-09T01:23:51.452Z,95753.00
2018-07-09T01:26:22.922Z,95742.00
2018-07-09T01:28:55.422Z,95750.00
2018-07-09T01:31:27.286Z,95747.00
2018-07-09T01:33:58.726Z,95750.00
2018-07-09T01:36:30.412Z,95751.00
2018-07-09T01:39:02.532Z,95750.00
2018-07-09T01:41:34.352Z,95749.00
2018-07-09T01:44:06.242Z,95750.00
2018-07-09T01:46:38.072Z,95746.00
2018-07-09T01:49:09.800Z,95744.00
2018-07-09T01:51:41.360Z,95746.00
2018-07-09T01:54:13.001Z,95742.00
2018-07-09T01:56:44.613Z,95744.00
2018-07-09T01:59:16.321Z,95740.00
2018-07-09T02:01:47.799Z,95737.00
2018-07-09T02:04:19.240Z,95730.00
2018-07-09T02:06:50.869Z,95734.00
2018-07-09T02:09:22.598Z,95732.00
2018-07-09T02:11:54.178Z,95728.00
2018-07-09T02:14:25.766Z,95724.00
2018-07-09T02:16:57.398Z,95730.00
2018-07-09T02:19:29.183Z,95730.00
2018-07-09T02:22:00.473Z,95723.00
2018-07-09T02:24:31.880Z,95722.00
2018-07-09T02:27:03.493Z,95727.00
2018-07-09T02:29:35.314Z,95724.00
2018-07-09T02:32:07.547Z,95721.00
2018-07-09T02:34:39.201Z,95719.00
2018-07-09T02:37:10.822Z,95721.00
2018-07-09T02:39:42.420Z,95723.00
2018-07-09T02:42:14.039Z,95720.00
2018-07-09T02:44:45.692Z,95725.00
2018-07-09T02:47:17.338Z,95728.00
2018-07-09T02:49:49.040Z,95727.00
2018-07-09T02:52:20.642Z,95728.00
2018-07-09T02:54:52.294Z,95730.00
2018-07-09T02:57:23.922Z,95731.00
2018-07-09T02:59:55.620Z,95733.00
2018-07-09T03:02:27.202Z,95733.00
2018-07-09T03:04:58.902Z,95732.00
2018-07-09T03:07:30.540Z,95735.00
2018-07-09T03:10:01.780Z,95734.00
2018-07-09T03:12:33.199Z,95735.00
2018-07-09T03:15:04.929Z,95738.00
2018-07-09T03:17:36.602Z,95728.00
2018-07-09T03:20:08.240Z,95731.00
2018-07-09T03:22:39.890Z,95733.00
2018-07-09T03:25:11.502Z,95735.00
2018-07-09T03:27:43.081Z,95731.00
2018-07-09T03:30:14.722Z,95740.00
2018-07-09T03:32:46.299Z,95738.00
2018-07-09T03:35:18.176Z,95732.00
2018-07-09T03:37:49.826Z,95739.00
2018-07-09T03:40:21.027Z,95736.00
2018-07-09T03:42:52.391Z,95741.00
2018-07-09T03:45:24.082Z,95740.00
2018-07-09T03:47:55.739Z,95738.00
2018-07-09T03:50:27.405Z,95738.00
2018-07-09T03:52:59.060Z,95734.00
2018-07-09T03:55:30.859Z,95736.00
2018-07-09T03:58:02.580Z,95740.00
2018-07-09T04:00:34.260Z,95739.00
2018-07-09T04:03:05.883Z,95737.00
2018-07-09T04:05:37.519Z,95742.00
2018-07-09T04:08:09.164Z,95745.00
2018-07-09T04:10:40.858Z,95746.00
2018-07-09T04:13:12.100Z,95746.00
2018-07-09T04:15:43.524Z,95746.00
2018-07-09T04:18:15.138Z,95749.00
2018-07-09T04:20:46.756Z,95744.00
2018-07-09T04:23:18.354Z,95747.00
2018-07-09T04:25:49.635Z,95743.00
2018-07-09T04:28:21.182Z,95741.00
2018-07-09T04:30:52.711Z,95745.00
2018-07-09T04:33:23.902Z,95740.00
2018-07-09T04:35:55.380Z,95740.00
2018-07-09T04:38:26.931Z,95746.00
2018-07-09T04:40:58.773Z,95744.00
2018-07-09T04:43:30.409Z,95738.00
2018-07-09T04:46:02.125Z,95742.00
2018-07-09T04:48:33.379Z,95741.00
2018-07-09T04:51:05.101Z,95740.00
2018-07-09T04:53:36.818Z,95740.00
2018-07-09T04:56:08.447Z,95738.00
2018-07-09T04:58:40.162Z,95736.00
2018-07-09T05:01:11.432Z,95740.00
2018-07-09T05:03:42.822Z,95741.00
2018-07-09T05:06:14.019Z,95735.00
2018-07-09T05:08:45.419Z,95738.00
2018-07-09T05:11:17.281Z,95741.00
2018-07-09T05:13:48.980Z,95744.00
2018-07-09T05:16:20.722Z,95737.00
2018-07-09T05:18:52.345Z,95745.00
2018-07-09T05:21:23.999Z,95743.00
2018-07-09T05:23:56.020Z,95736.00
2018-07-09T05:26:27.779Z,95733.00
2018-07-09T05:28:59.400Z,95738.00
2018-07-09T05:31:31.090Z,95733.00
2018-07-09T05:34:02.695Z,95734.00
2018-07-09T05:36:34.642Z,95737.00
2018-07-09T05:39:07.019Z,95742.00
2018-07-09T05:41:38.779Z,95741.00
2018-07-09T05:44:10.764Z,95742.00
2018-07-09T05:46:42.647Z,95738.00
2018-07-09T05:49:14.150Z,95738.00
2018-07-09T05:51:46.022Z,95739.00
2018-07-09T05:54:17.802Z,95741.00
2018-07-09T05:56:49.479Z,95733.00
2018-07-09T05:59:21.179Z,95735.00
2018-07-09T06:01:52.401Z,95738.00
2018-07-09T06:04:23.899Z,95731.00
2018-07-09T06:06:55.772Z,95730.00
2018-07-09T06:09:27.579Z,95734.00
2018-07-09T06:11:59.505Z,95724.00
2018-07-09T06:14:30.926Z,95726.00
2018-07-09T06:17:02.736Z,95725.00
2018-07-09T06:19:34.466Z,95726.00
2018-07-09T06:22:06.359Z,95719.00
2018-07-09T06:24:37.576Z,95723.00
2018-07-09T06:27:09.014Z,95725.00
2018-07-09T06:29:40.349Z,95725.00
2018-07-09T06:32:11.831Z,95724.00
2018-07-09T06:34:43.622Z,95718.00
2018-07-09T06:37:15.275Z,95721.00
2018-07-09T06:39:46.921Z,95722.00
2018-07-09T06:42:18.628Z,95715.00
2018-07-09T06:44:50.263Z,95720.00
2018-07-09T06:47:21.879Z,95722.00
2018-07-09T06:49:53.328Z,95722.00
2018-07-09T06:52:25.719Z,95718.00
2018-07-09T06:54:57.341Z,95720.00
2018-07-09T06:57:29.031Z,95725.00
2018-07-09T07:00:00.292Z,95719.00
2018-07-09T07:02:31.991Z,95712.00
2018-07-09T07:05:03.731Z,95705.00
2018-07-09T07:07:35.645Z,95716.00
2018-07-09T07:10:08.319Z,95710.00
2018-07-09T07:12:40.217Z,95702.00
2018-07-09T07:15:12.108Z,95701.00
2018-07-09T07:17:44.052Z,95705.00
2018-07-09T07:20:15.915Z,95701.00
2018-07-09T07:22:47.867Z,95693.00
2018-07-09T07:25:19.632Z,95693.00
2018-07-09T07:27:51.439Z,95693.00
2018-07-09T07:30:22.659Z,95687.00
2018-07-09T07:32:54.682Z,95690.00
2018-07-09T07:35:26.291Z,95687.00
2018-07-09T07:37:58.112Z,95691.00
2018-07-09T07:40:29.855Z,95688.00
2018-07-09T07:43:01.642Z,95682.00
2018-07-09T07:45:33.305Z,95683.00
2018-07-09T07:48:05.166Z,95678.00
2018-07-09T07:50:36.728Z,95675.00
2018-07-09T07:53:08.340Z,95675.00
2018-07-09T07:55:40.008Z,95675.00
2018-07-09T07:58:11.727Z,95667.00
2018-07-09T08:00:43.429Z,95674.00
2018-07-09T08:03:15.122Z,95674.00
2018-07-09T08:05:46.801Z,95663.00
2018-07-09T08:08:17.999Z,95661.00
2018-07-09T08:10:49.394Z,95664.00
2018-07-09T08:13:28.997Z,95658.00
2018-07-09T08:15:52.632Z,95650.00
2018-07-09T08:18:24.405Z,95653.00
2018-07-09T08:20:56.091Z,95656.00
2018-07-09T08:23:27.738Z,95655.00
2018-07-09T08:25:58.992Z,95652.00
2018-07-09T08:28:30.518Z,95649.00
2018-07-09T08:31:02.236Z,95650.00
2018-07-09T08:33:33.841Z,95651.00
2018-07-09T08:36:05.119Z,95648.00
2018-07-09T08:38:36.163Z,95644.00
2018-07-09T08:41:07.247Z,95642.00
2018-07-09T08:43:38.750Z,95637.00
2018-07-09T08:46:10.443Z,95642.00
2018-07-09T08:48:42.119Z,95637.00
2018-07-09T08:51:13.839Z,95633.00
2018-07-09T08:53:45.626Z,95629.00
2018-07-09T08:56:17.031Z,95620.00
2018-07-09T08:58:48.454Z,95618.00
2018-07-09T09:01:20.077Z,95617.00
2018-07-09T09:03:51.933Z,95618.00
2018-07-09T09:06:23.518Z,95617.00
2018-07-09T09:08:55.402Z,95616.00
2018-07-09T09:11:26.583Z,95609.00
2018-07-09T09:13:58.042Z,95612.00
2018-07-09T09:16:29.674Z,95614.00
2018-07-09T09:19:00.852Z,95613.00
2018-07-09T09:21:32.226Z,95608.00
2018-07-09T09:24:04.004Z,95604.00
2018-07-09T09:26:35.327Z,95602.00
2018-07-09T09:29:06.838Z,95596.00
2018-07-09T09:31:38.569Z,95594.00
2018-07-09T09:34:10.431Z,95589.00
2018-07-09T09:36:42.147Z,95587.00
2018-07-09T09:39:13.489Z,95578.00
2018-07-09T09:41:44.890Z,95581.00
2018-07-09T09:44:16.639Z,95573.00
2018-07-09T09:46:48.297Z,95572.00
2018-07-09T09:49:20.065Z,95572.00
2018-07-09T09:51:51.297Z,95576.00
2018-07-09T09:54:23.207Z,95582.00
2018-07-09T09:56:55.292Z,95584.00
2018-07-09T09:59:27.096Z,95578.00
2018-07-09T10:01:59.053Z,95576.00
2018-07-09T10:04:31.250Z,95573.00
2018-07-09T10:07:03.191Z,95572.00
2018-07-09T10:09:34.956Z,95571.00
2018-07-09T10:12:07.027Z,95571.00
2018-07-09T10:14:38.727Z,95577.00
2018-07-09T10:17:10.521Z,95574.00
2018-07-09T10:19:42.254Z,95573.00
2018-07-09T10:22:13.951Z,95581.00
2018-07-09T10:24:45.815Z,95582.00
2018-07-09T10:27:17.619Z,95575.00
2018-07-09T10:29:48.872Z,95575.00
2018-07-09T10:32:20.346Z,95583.00
2018-07-09T10:34:52.121Z,95581.00
2018-07-09T10:37:23.804Z,95589.00
2018-07-09T10:39:55.575Z,95592.00
2018-07-09T10:42:27.276Z,95584.00
2018-07-09T10:44:58.942Z,95585.00
2018-07-09T10:47:30.915Z,95573.00
2018-07-09T10:50:02.621Z,95575.00
2018-07-09T10:52:34.267Z,95573.00
2018-07-09T10:55:06.199Z,95567.00
2018-07-09T10:57:37.956Z,95559.00
2018-07-09T11:00:09.750Z,95559.00
2018-07-09T11:02:41.025Z,95552.00
2018-07-09T11:05:12.696Z,95550.00
2018-07-09T11:07:44.383Z,95554.00
2018-07-09T11:10:16.174Z,95556.00
2018-07-09T11:12:47.899Z,95557.00
2018-07-09T11:15:19.682Z,95561.00
2018-07-09T11:17:51.392Z,95560.00
2018-07-09T11:20:23.176Z,95566.00
2018-07-09T11:22:54.445Z,95563.00
2018-07-09T11:25:26.016Z,95555.00
2018-07-09T11:27:57.878Z,95557.00
2018-07-09T11:30:29.663Z,95562.00
2018-07-09T11:33:01.475Z,95555.00
2018-07-09T11:35:33.257Z,95543.00
2018-07-09T11:38:04.979Z,95545.00
2018-07-09T11:40:36.740Z,95537.00
2018-07-09T11:43:08.464Z,95531.00
2018-07-09T11:45:40.253Z,95533.00
2018-07-09T11:48:11.947Z,95516.00
2018-07-09T11:50:43.683Z,95530.00
2018-07-09T11:53:15.440Z,95526.00
2018-07-09T11:55:47.267Z,95523.00
2018-07-09T11:58:18.852Z,95521.00
2018-07-09T12:00:50.101Z,95518.00
2018-07-09T12:03:21.218Z,95512.00
2018-07-09T12:05:52.680Z,95510.00
2018-07-09T12:08:24.386Z,95512.00
2018-07-09T12:10:56.117Z,95506.00
2018-07-09T12:13:27.761Z,95506.00
2018-07-09T12:15:58.990Z,95508.00
2018-07-09T12:18:30.450Z,95504.00
2018-07-09T12:21:02.303Z,95504.00
2018-07-09T12:23:34.023Z,95503.00
2018-07-09T12:26:05.993Z,95492.00
2018-07-09T12:28:37.749Z,95491.00
2018-07-09T12:31:09.416Z,95492.00
2018-07-09T12:33:41.031Z,95489.00
2018-07-09T12:36:12.781Z,95490.00
2018-07-09T12:38:44.656Z,95490.00
2018-07-09T12:41:16.454Z,95481.00
2018-07-09T12:43:48.276Z,95484.00
2018-07-09T12:46:20.103Z,95486.00
2018-07-09T12:48:51.774Z,95483.00
2018-07-09T12:51:23.502Z,95477.00
2018-07-09T12:53:55.291Z,95476.00
2018-07-09T12:56:27.055Z,95478.00
2018-07-09T12:58:58.830Z,95475.00
2018-07-09T13:01:30.507Z,95469.00
2018-07-09T13:04:02.287Z,95466.00
2018-07-09T13:06:33.977Z,95465.00
2018-07-09T13:09:05.822Z,95457.00
2018-07-09T13:11:37.640Z,95459.00
2018-07-09T13:14:09.463Z,95464.00
2018-07-09T13:16:41.243Z,95464.00
2018-07-09T13:19:13.176Z,95471.00
2018-07-09T13:21:44.990Z,95465.00
2018-07-09T13:24:16.778Z,95472.00
2018-07-09T13:26:48.582Z,95464.00
2018-07-09T13:29:20.280Z,95466.00
2018-07-09T13:31:52.166Z,95460.00
2018-07-09T13:34:23.883Z,95458.00
2018-07-09T13:36:56.253Z,95456.00
2018-07-09T13:39:28.117Z,95451.00
2018-07-09T13:41:59.861Z,95454.00
2018-07-09T13:44:31.611Z,95446.00
2018-07-09T13:47:03.441Z,95448.00
2018-07-09T13:49:35.241Z,95454.00
2018-07-09T13:52:07.134Z,95452.00
2018-07-09T13:54:38.842Z,95448.00
2018-07-09T13:57:10.659Z,95448.00
2018-07-09T13:59:42.340Z,95448.00
2018-07-09T14:02:13.978Z,95457.00
2018-07-09T14:04:45.590Z,95455.00
2018-07-09T14:07:16.825Z,95455.00
2018-07-09T14:09:48.496Z,95449.00
2018-07-09T14:12:20.199Z,95449.00
2018-07-09T14:14:51.852Z,95447.00
2018-07-09T14:17:23.547Z,95443.00
2018-07-09T14:20:29.575Z,95439.00
2018-07-09T14:23:01.632Z,95442.00
2018-07-09T14:25:33.419Z,95438.00
2018-07-09T14:28:05.342Z,95442.00
2018-07-09T14:30:37.103Z,95444.00
2018-07-09T14:33:09.081Z,95437.00
2018-07-09T14:35:40.844Z,95433.00
2018-07-09T14:38:12.566Z,95436.00
2018-07-09T14:40:44.161Z,95438.00
2018-07-09T14:43:15.891Z,95430.00
2018-07-09T14:45:47.609Z,95434.00
2018-07-09T14:48:19.401Z,95431.00
2018-07-09T14:50:51.082Z,95427.00
2018-07-09T14:53:22.830Z,95429.00
2018-07-09T14:55:54.621Z,95426.00
2018-07-09T14:58:26.340Z,95414.00
2018-07-09T15:00:58.049Z,95422.00
2018-07-09T15:03:29.794Z,95424.00
2018-07-09T15:06:01.503Z,95422.00
2018-07-09T15:08:33.254Z,95423.00
2018-07-09T15:11:05.022Z,95427.00
2018-07-09T15:13:36.423Z,95419.00
2018-07-09T15:16:08.002Z,95422.00
2018-07-09T15:18:39.761Z,95420.00
2018-07-09T15:21:11.652Z,95414.00
2018-07-09T15:23:42.880Z,95417.00
2018-07-09T15:26:14.362Z,95412.00
2018-07-09T15:28:46.012Z,95413.00
2018-07-09T15:31:17.778Z,95402.00
2018-07-09T15:33:49.392Z,95407.00
2018-07-09T15:36:21.054Z,95406.00
2018-07-09T15:38:52.920Z,95405.00
2018-07-09T15:41:24.629Z,95408.00
2018-07-09T15:44:02.862Z,95399.00
2018-07-09T15:46:34.701Z,95409.00
2018-07-09T15:49:06.627Z,95409.00
2018-07-09T15:51:38.707Z,95407.00
2018-07-09T15:54:10.194Z,95404.00
2018-07-09T15:56:41.239Z,95402.00
2018-07-09T15:59:12.456Z,95402.00
2018-07-09T16:01:43.959Z,95402.00
2018-07-09T16:04:15.643Z,95400.00
2018-07-09T16:06:46.898Z,95401.00
2018-07-09T16:09:18.387Z,95405.00
2018-07-09T16:11:49.583Z,95402.00
2018-07-09T16:14:21.323Z,95404.00
2018-07-09T16:16:52.938Z,95401.00
2018-07-09T16:19:24.357Z,95401.00
2018-07-09T16:21:55.699Z,95395.00
2018-07-09T16:24:27.522Z,95392.00
2018-07-09T16:26:59.146Z,95392.00
2018-07-09T16:29:30.827Z,95385.00
2018-07-09T16:32:02.434Z,95382.00
2018-07-09T16:34:34.151Z,95378.00
2018-07-09T16:37:06.834Z,95371.00
2018-07-09T16:39:38.564Z,95370.00
2018-07-09T16:42:10.354Z,95378.00
2018-07-09T16:44:42.145Z,95373.00
2018-07-09T16:47:13.480Z,95379.00
2018-07-09T16:49:44.939Z,95378.00
2018-07-09T16:52:16.479Z,95382.00
2018-07-09T16:54:48.140Z,95380.00
2018-07-09T16:57:19.899Z,95370.00
2018-07-09T16:59:51.645Z,95373.00
2018-07-09T17:02:23.459Z,95367.00
2018-07-09T17:04:55.155Z,95370.00
2018-07-09T17:07:26.846Z,95373.00
2018-07-09T17:09:58.120Z,95376.00
2018-07-09T17:12:29.588Z,95371.00
2018-07-09T17:15:01.004Z,95373.00
2018-07-09T17:17:32.438Z,95379.00
2018-07-09T17:20:03.799Z,95380.00
2018-07-09T17:22:35.287Z,95383.00
2018-07-09T17:25:07.454Z,95377.00
2018-07-09T17:27:39.067Z,95365.00
2018-07-09T17:30:10.799Z,95366.00
2018-07-09T17:32:42.463Z,95367.00
2018-07-09T17:35:14.181Z,95368.00
2018-07-09T17:37:46.074Z,95364.00
2018-07-09T17:40:17.712Z,95368.00
2018-07-09T17:42:49.128Z,95361.00
2018-07-09T17:45:21.676Z,95358.00
2018-07-09T17:47:53.289Z,95354.00
2018-07-09T17:50:24.565Z,95354.00
2018-07-09T17:52:56.256Z,95353.00
2018-07-09T17:55:27.782Z,95357.00
2018-07-09T17:57:59.123Z,95362.00
2018-07-09T18:00:30.986Z,95351.00
2018-07-09T18:03:03.478Z,95362.00
2018-07-09T18:05:34.957Z,95365.00
2018-07-09T18:08:06.716Z,95373.00
2018-07-09T18:10:38.597Z,95370.00
2018-07-09T18:13:10.465Z,95374.00
2018-07-09T18:15:42.530Z,95370.00
2018-07-09T18:18:13.995Z,95366.00
2018-07-09T18:20:45.480Z,95363.00
2018-07-09T18:23:16.653Z,95363.00
2018-07-09T18:25:48.347Z,95362.00
2018-07-09T18:28:19.679Z,95368.00
2018-07-09T18:30:51.188Z,95367.00
2018-07-09T18:33:22.972Z,95371.00
2018-07-09T18:35:54.506Z,95369.00
2018-07-09T18:38:26.336Z,95370.00
2018-07-09T18:40:58.101Z,95366.00
2018-07-09T18:43:29.419Z,95369.00
2018-07-09T18:46:00.941Z,95370.00
2018-07-09T18:48:32.722Z,95367.00
2018-07-09T18:51:04.503Z,95373.00
2018-07-09T18:53:36.396Z,95370.00
2018-07-09T18:56:08.423Z,95367.00
2018-07-09T18:58:39.827Z,95371.00
2018-07-09T19:01:11.599Z,95373.00
2018-07-09T19:03:43.098Z,95372.00
2018-07-09T19:07:28.859Z,95374.00
2018-07-09T19:10:00.363Z,95378.00
2018-07-09T19:12:36.469Z,95379.00
2018-07-09T19:15:09.061Z,95388.00
2018-07-09T19:18:03.427Z,95394.00
2018-07-09T19:21:51.103Z,95396.00
2018-07-09T19:24:20.685Z,95403.00
2018-07-09T19:26:50.289Z,95405.00
2018-07-09T19:29:20.056Z,95411.00
2018-07-09T19:31:49.663Z,95421.00
2018-07-09T19:34:19.211Z,95415.00
2018-07-09T19:36:49.193Z,95416.00
2018-07-09T19:39:19.472Z,95418.00
2018-07-09T19:41:49.108Z,95421.00
2018-07-09T19:44:18.651Z,95425.00
2018-07-09T19:46:48.276Z,95427.00
2018-07-09T19:49:17.827Z,95435.00
2018-07-09T19:51:47.362Z,95438.00
2018-07-09T19:54:17.133Z,95443.00
2018-07-09T19:56:46.851Z,95442.00
2018-07-09T19:59:16.385Z,95450.00
2018-07-09T20:01:46.244Z,95449.00
2018-07-09T20:04:16.102Z,95452.00
2018-07-09T20:06:45.660Z,95450.00
2018-07-09T20:09:20.477Z,95441.00
2018-07-09T20:11:55.000Z,95440.00
2018-07-09T20:14:29.380Z,95444.00
2018-07-09T20:17:04.178Z,95452.00
2018-07-09T20:19:33.788Z,95457.00
2018-07-09T20:22:03.670Z,95450.00
2018-07-09T20:24:33.047Z,95455.00
2018-07-09T20:27:03.381Z,95461.00
2018-07-09T20:29:32.932Z,95467.00
2018-07-09T20:32:02.479Z,95462.00
2018-07-09T20:34:32.059Z,95467.00
2018-07-09T20:37:01.631Z,95463.00
2018-07-09T20:39:31.201Z,95468.00
2018-07-09T20:42:01.722Z,95467.00
2018-07-09T20:44:31.339Z,95468.00
2018-07-09T20:47:00.879Z,95472.00
2018-07-09T20:49:30.529Z,95476.00
2018-07-09T20:52:00.173Z,95478.00
2018-07-09T20:54:30.761Z,95475.00
2018-07-09T20:57:00.458Z,95473.00
2018-07-09T20:59:30.022Z,95479.00
2018-07-09T21:01:59.649Z,95478.00
2018-07-09T21:04:30.578Z,95474.00
2018-07-09T21:07:01.151Z,95483.00
2018-07-09T21:09:31.934Z,95479.00
2018-07-09T21:12:05.963Z,95483.00
2018-07-09T21:14:35.518Z,95479.00
2018-07-09T21:17:05.058Z,95478.00
2018-07-09T21:19:34.638Z,95475.00
2018-07-09T21:22:04.216Z,95478.00
2018-07-09T21:24:33.790Z,95473.00
2018-07-09T21:27:03.637Z,95478.00
2018-07-09T21:29:32.931Z,95480.00
2018-07-09T21:32:03.079Z,95476.00
2018-07-09T21:34:32.421Z,95474.00
2018-07-09T21:37:01.939Z,95471.00
2018-07-09T21:39:31.699Z,95475.00
2018-07-09T21:42:00.986Z,95468.00
2018-07-09T21:44:30.463Z,95469.00
2018-07-09T21:47:00.181Z,95464.00
2018-07-09T21:49:29.811Z,95467.00
2018-07-09T21:51:59.838Z,95471.00
2018-07-09T21:54:29.166Z,95479.00
2018-07-09T21:56:58.740Z,95485.00
2018-07-09T21:59:28.238Z,95479.00
2018-07-09T22:01:57.767Z,95478.00
2018-07-09T22:04:27.341Z,95479.00
2018-07-09T22:06:56.859Z,95472.00
2018-07-09T22:09:26.450Z,95470.00
2018-07-09T22:11:55.980Z,95470.00
2018-07-09T22:14:25.538Z,95470.00
2018-07-09T22:16:55.298Z,95465.00
2018-07-09T22:19:24.780Z,95462.00
2018-07-09T22:21:54.521Z,95468.00
2018-07-09T22:24:24.019Z,95469.00
2018-07-09T22:26:53.947Z,95466.00
2018-07-09T22:29:23.241Z,95465.00
2018-07-09T22:31:54.458Z,95466.00
2018-07-09T22:34:25.827Z,95465.00
2018-07-09T22:36:57.891Z,95464.00
2018-07-09T22:39:29.546Z,95458.00
2018-07-09T22:42:00.878Z,95456.00
2018-07-09T22:44:32.259Z,95455.00
2018-07-09T22:47:03.459Z,95458.00
2018-07-09T22:49:34.886Z,95455.00
2018-07-09T22:52:06.698Z,95450.00
2018-07-09T22:54:38.510Z,95449.00
2018-07-09T22:57:10.182Z,95448.00
2018-07-09T22:59:41.113Z,95444.00
2018-07-09T23:02:12.642Z,95443.00
2018-07-09T23:04:44.260Z,95438.00
2018-07-09T23:07:15.481Z,95436.00
2018-07-09T23:13:22.668Z,95440.00
2018-07-09T23:16:39.462Z,95448.00
2018-07-09T23:22:19.704Z,95451.00
2018-07-09T23:24:54.799Z,95450.00
2018-07-09T23:27:29.939Z,95443.00
2018-07-09T23:29:59.459Z,95445.00
2018-07-09T23:32:29.016Z,95441.00
2018-07-09T23:34:58.567Z,95440.00
2018-07-09T23:37:28.659Z,95442.00
2018-07-09T23:39:58.462Z,95443.00
2018-07-09T23:42:28.188Z,95441.00
2018-07-09T23:44:57.699Z,95439.00
2018-07-09T23:47:27.182Z,95431.00
2018-07-09T23:49:57.279Z,95427.00
2018-07-09T23:52:26.819Z,95427.00
2018-07-09T23:54:56.427Z,95424.00
2018-07-09T23:58:09.345Z,95419.00
